Pleasant Valley, Wisconsin
Current Conditions -  °F | °C
As of 2:35 PM on Tuesday 21 Oct 2014 (Local Time) from KRNH Reporting Station
Clear Clear  
Wind Chill: 54°   Ceiling: Unl
Heat Index: 54°   Visibility: 10mi
Dew Point: 38°   Wind: 9mph
Humidity: 54%   Direction: 130°SE
Pressure: 30.18"   Gusts: NA
Location:  44.9597°N, 92.4593°W
Report Text: KRNH 211935Z AUTO 13008KT 090V150 10SM CLR 12/03 A3018 RMK AO2 T01230031
Loading
Personal Weather Stations






























Interactive Weather Map
Tropical Storm Tracking
New forecast layout! Learn more

10-Day Weather Forecast

Advertisements
Track Severe Weather on mobile